Time;durP1;ratioP1;P1;durP2;ratioP2;P2;SDS_P1;SDS_P2;PMS_P1;PMS_P2;Temp;Humidity;BMP_temperature;BMP_pressure;BME280_temperature;BME280_humidity;BME280_pressure;Samples;Min_cycle;Max_cycle;Signal;HPM_P1;HPM_P2
2021/01/11 00:02:47;;;;;;;33.80;29.35;;;0.60;99.90;;;;;;5015181;28;20455;-82
2021/01/11 00:08:52;;;;;;;37.80;28.83;;;0.50;99.90;;;;;;4972158;28;20199;-82
2021/01/11 00:14:44;;;;;;;29.55;24.85;;;0.50;99.90;;;;;;4968715;28;20443;-82
2021/01/11 00:17:27;;;;;;;;;;;;;;;;;;;;;
2021/01/11 00:25:50;;;;;;;28.60;22.02;;;0.30;99.90;;;;;;5013273;28;20438;-82
2021/01/11 00:28:31;;;;;;;27.70;22.77;;;0.20;99.90;;;;;;5013772;28;20201;-82
2021/01/11 00:31:08;;;;;;;29.17;25.85;;;0.20;99.90;;;;;;5051768;28;20216;-82
2021/01/11 00:34:00;;;;;;;27.75;24.77;;;0.20;99.90;;;;;;5050526;28;20668;-82
2021/01/11 00:36:57;;;;;;;;;;;;;;;;;;;;;
2021/01/11 00:39:32;;;;;;;28.38;24.60;;;-0.10;99.90;;;;;;5034024;28;20629;-81
2021/01/11 00:42:21;;;;;;;;;;;;;;;;;;;;;
2021/01/11 00:45:03;;;;;;;;;;;;;;;;;;;;;
2021/01/11 00:47:47;;;;;;;27.73;22.92;;;-0.10;99.90;;;;;;5031974;28;20196;-82
2021/01/11 00:50:21;;;;;;;26.67;23.33;;;-0.20;99.90;;;;;;5049426;28;20221;-82
2021/01/11 00:52:52;;;;;;;32.53;24.67;;;-0.20;99.90;;;;;;5052932;28;20300;-82
2021/01/11 00:55:29;;;;;;;32.83;25.60;;;-0.30;99.90;;;;;;5033468;28;20186;-82
2021/01/11 00:58:16;;;;;;;39.17;28.55;;;-0.30;99.90;;;;;;5032475;28;20236;-82
2021/01/11 01:03:57;;;;;;;32.63;24.65;;;-0.20;99.90;;;;;;5032521;28;20193;-82
2021/01/11 01:06:34;;;;;;;36.88;27.10;;;-0.20;99.90;;;;;;5032671;28;20193;-82
2021/01/11 01:09:34;;;;;;;31.67;24.75;;;-0.30;99.90;;;;;;5043018;28;20601;-82
2021/01/11 01:12:49;;;;;;;;;;;;;;;;;;;;;
2021/01/11 01:15:30;;;;;;;;;;;;;;;;;;;;;
2021/01/11 01:18:17;;;;;;;28.17;25.30;;;-0.20;99.90;;;;;;5033225;28;20194;-83
2021/01/11 01:21:08;;;;;;;32.00;26.25;;;-0.20;99.90;;;;;;5032451;28;20194;-83
2021/01/11 01:23:54;;;;;;;;;;;;;;;;;;;;;
2021/01/11 01:29:52;;;;;;;;;;;;;;;;;;;;;
2021/01/11 01:32:41;;;;;;;34.97;29.58;;;-0.40;99.90;;;;;;5019851;28;20271;-82
2021/01/11 01:35:31;;;;;;;;;;;;;;;;;;;;;
2021/01/11 01:38:29;;;;;;;38.75;34.70;;;-0.20;99.90;;;;;;5050370;28;20322;-82
2021/01/11 01:40:59;;;;;;;32.60;26.27;;;-0.10;99.90;;;;;;5056247;28;20216;-82
2021/01/11 01:43:54;;;;;;;36.42;27.35;;;0.10;99.90;;;;;;5052464;28;20193;-82
2021/01/11 01:46:33;;;;;;;33.45;26.35;;;0.00;99.90;;;;;;4954509;29;20235;-82
2021/01/11 01:52:04;;;;;;;31.88;22.05;;;0.20;99.90;;;;;;5022761;28;20479;-82
2021/01/11 01:54:47;;;;;;;;;;;;;;;;;;;;;
2021/01/11 01:57:24;;;;;;;27.85;20.40;;;0.30;99.90;;;;;;5046343;28;20213;-82
2021/01/11 02:03:02;;;;;;;23.37;19.00;;;0.50;99.90;;;;;;4951732;28;20196;-82
2021/01/11 02:06:01;;;;;;;;;;;;;;;;;;;;;
2021/01/11 02:08:50;;;;;;;28.13;19.02;;;0.60;99.90;;;;;;4971835;28;20569;-82
2021/01/11 02:15:03;;;;;;;23.43;17.03;;;0.50;99.90;;;;;;4936936;28;20201;-82
2021/01/11 02:21:27;;;;;;;30.90;17.40;;;0.50;99.90;;;;;;5035721;28;20822;-82
2021/01/11 02:27:52;;;;;;;;;;;;;;;;;;;;;
2021/01/11 02:43:17;;;;;;;25.08;17.88;;;0.50;99.90;;;;;;5001767;28;20472;-82
2021/01/11 02:45:54;;;;;;;26.13;17.50;;;0.50;99.90;;;;;;5034907;28;20208;-82
2021/01/11 02:49:01;;;;;;;25.93;17.20;;;0.60;99.90;;;;;;5044756;28;20482;-83
2021/01/11 02:52:12;;;;;;;;;;;;;;;;;;;;;
2021/01/11 02:58:23;;;;;;;23.45;15.80;;;0.60;99.90;;;;;;5003959;28;20213;-82
2021/01/11 03:01:30;;;;;;;;;;;;;;;;;;;;;
2021/01/11 03:04:08;;;;;;;26.85;17.45;;;0.70;99.90;;;;;;4975506;28;20189;-82
2021/01/11 03:06:58;;;;;;;32.08;17.17;;;0.60;99.90;;;;;;5054420;28;20224;-82
2021/01/11 03:09:36;;;;;;;23.55;16.00;;;0.60;99.90;;;;;;5054271;28;20197;-82
2021/01/11 03:12:31;;;;;;;;;;;;;;;;;;;;;
2021/01/11 03:15:25;;;;;;;;;;;;;;;;;;;;;
2021/01/11 03:18:52;;;;;;;29.45;18.02;;;0.60;99.90;;;;;;5030598;28;20451;-82
2021/01/11 03:24:24;;;;;;;26.70;14.70;;;0.60;99.90;;;;;;5034362;28;20281;-82
2021/01/11 03:30:23;;;;;;;24.30;15.63;;;0.50;99.90;;;;;;4919731;29;20220;-82
2021/01/11 03:33:23;;;;;;;31.00;18.73;;;0.50;99.90;;;;;;5014835;28;20196;-82
2021/01/11 03:36:21;;;;;;;29.50;18.10;;;0.50;99.90;;;;;;4972140;28;20212;-82
2021/01/11 03:38:59;;;;;;;43.17;21.85;;;0.50;99.90;;;;;;5044541;28;20550;-82
2021/01/11 03:41:53;;;;;;;36.20;21.70;;;0.40;99.90;;;;;;5041213;28;20688;-82
2021/01/11 03:45:04;;;;;;;;;;;;;;;;;;;;;
2021/01/11 03:48:24;;;;;;;;;;;;;;;;;;;;;
2021/01/11 03:51:17;;;;;;;;;;;;;;;;;;;;;
2021/01/11 03:54:00;;;;;;;36.38;22.20;;;0.30;99.90;;;;;;5017156;28;20192;-82
2021/01/11 04:03:02;;;;;;;;;;;;;;;;;;;;;
2021/01/11 04:08:40;;;;;;;43.38;25.65;;;0.10;99.90;;;;;;5037467;28;20193;-78
2021/01/11 04:14:34;;;;;;;40.10;25.63;;;0.20;99.90;;;;;;4929042;28;20204;-82
2021/01/11 04:17:35;;;;;;;37.65;23.00;;;0.30;99.90;;;;;;5038008;28;20202;-81
2021/01/11 04:23:13;;;;;;;38.28;22.35;;;0.50;99.90;;;;;;4959348;28;20200;-82
2021/01/11 04:29:46;;;;;;;;;;;;;;;;;;;;;
2021/01/11 04:32:43;;;;;;;59.13;28.13;;;0.60;99.90;;;;;;4900564;29;20496;-82
2021/01/11 04:35:49;;;;;;;;;;;;;;;;;;;;;
2021/01/11 04:38:25;;;;;;;49.13;29.80;;;0.70;99.90;;;;;;5034856;28;20189;-82
2021/01/11 04:41:00;;;;;;;48.37;30.47;;;0.70;99.90;;;;;;5040335;28;20518;-82
2021/01/11 04:53:06;;;;;;;49.57;28.37;;;0.70;99.90;;;;;;5015855;28;20189;-82
2021/01/11 04:55:50;;;;;;;44.73;26.23;;;0.80;99.90;;;;;;5052688;28;20824;-82
2021/01/11 04:59:02;;;;;;;42.70;26.93;;;0.80;99.90;;;;;;5051939;28;20578;-82
2021/01/11 05:01:42;;;;;;;40.00;24.35;;;0.80;99.90;;;;;;5025007;28;20810;-84
2021/01/11 05:04:15;;;;;;;44.97;29.43;;;0.90;99.90;;;;;;5052578;28;20292;-82
2021/01/11 05:07:13;;;;;;;42.63;25.97;;;0.90;99.90;;;;;;5049738;28;20448;-82
2021/01/11 05:10:04;;;;;;;50.80;24.10;;;0.80;99.90;;;;;;4974343;28;20460;-82
2021/01/11 05:12:40;;;;;;;40.60;24.50;;;0.80;99.90;;;;;;5034408;28;20452;-83
2021/01/11 05:15:21;;;;;;;45.58;26.92;;;0.90;99.90;;;;;;5053237;28;20452;-82
2021/01/11 05:18:32;;;;;;;41.23;24.63;;;0.80;99.90;;;;;;5042165;28;20189;-82
2021/01/11 05:21:46;;;;;;;;;;;;;;;;;;;;;
2021/01/11 05:24:51;;;;;;;45.87;28.23;;;0.90;99.90;;;;;;4959091;28;20193;-82
2021/01/11 05:27:47;;;;;;;;;;;;;;;;;;;;;
2021/01/11 05:33:33;;;;;;;46.50;28.37;;;1.10;99.90;;;;;;4928201;29;20516;-82
2021/01/11 05:36:12;;;;;;;45.90;28.37;;;1.10;99.90;;;;;;4935689;28;20568;-82
2021/01/11 05:38:52;;;;;;;;;;;;;;;;;;;;;
2021/01/11 05:41:26;;;;;;;52.47;28.40;;;1.10;99.90;;;;;;4893389;29;20463;-82
2021/01/11 05:44:17;;;;;;;32.47;21.77;;;1.20;99.90;;;;;;4955861;29;20459;-81
2021/01/11 05:46:54;;;;;;;37.60;24.60;;;1.20;99.90;;;;;;4994141;28;20542;-81
2021/01/11 05:49:28;;;;;;;52.93;28.40;;;1.30;99.90;;;;;;5054328;28;20451;-81
2021/01/11 05:52:35;;;;;;;49.77;30.60;;;1.20;99.90;;;;;;5036068;28;20488;-81
2021/01/11 05:55:22;;;;;;;41.23;24.90;;;1.20;99.90;;;;;;5032037;28;20496;-81
2021/01/11 05:58:10;;;;;;;53.70;26.33;;;1.30;99.90;;;;;;5046458;28;20471;-82
2021/01/11 06:00:51;;;;;;;45.27;28.47;;;1.30;99.90;;;;;;5042007;28;20455;-81
2021/01/11 06:03:33;;;;;;;;;;;;;;;;;;;;;
2021/01/11 06:06:06;;;;;;;43.63;28.98;;;1.30;99.90;;;;;;5043893;28;20946;-81
2021/01/11 06:08:38;;;;;;;55.97;32.20;;;1.20;99.90;;;;;;5055649;28;20246;-82
2021/01/11 06:11:35;;;;;;;60.05;32.85;;;1.30;99.90;;;;;;5040053;28;20484;-81
2021/01/11 06:14:02;;;;;;;43.43;29.90;;;1.20;99.90;;;;;;4903577;29;20193;-81
2021/01/11 06:20:31;;;;;;;;;;;;;;;;;;;;;
2021/01/11 06:26:32;;;;;;;37.97;26.40;;;1.20;99.90;;;;;;5015035;28;20448;-82
2021/01/11 06:32:19;;;;;;;36.67;23.35;;;1.10;99.90;;;;;;5034891;28;20271;-81
2021/01/11 06:34:45;;;;;;;42.17;22.70;;;1.20;99.90;;;;;;5035149;28;20287;-81
2021/01/11 06:37:21;;;;;;;32.83;21.03;;;1.20;99.80;;;;;;5053485;28;20462;-81
2021/01/11 06:39:48;;;;;;;32.70;20.63;;;1.10;99.30;;;;;;5055048;28;20541;-81
2021/01/11 06:42:23;;;;;;;33.00;19.33;;;1.10;97.90;;;;;;5050929;28;20451;-81
2021/01/11 06:45:06;;;;;;;29.50;18.50;;;1.10;96.00;;;;;;5034954;28;20452;-82
2021/01/11 06:47:41;;;;;;;33.53;17.37;;;1.20;94.00;;;;;;5044113;28;20539;-82
2021/01/11 06:50:24;;;;;;;30.93;18.33;;;1.10;94.10;;;;;;5034839;28;21081;-82
2021/01/11 06:56:36;;;;;;;26.33;17.10;;;1.20;92.10;;;;;;5009162;28;20468;-81
2021/01/11 06:59:16;;;;;;;;;;;;;;;;;;;;;
2021/01/11 07:01:50;;;;;;;25.63;16.70;;;1.20;90.90;;;;;;4983940;28;21003;-81
2021/01/11 07:04:35;;;;;;;30.90;17.80;;;1.20;91.00;;;;;;5034002;28;21041;-82
2021/01/11 07:07:04;;;;;;;32.30;17.70;;;1.00;91.20;;;;;;5035269;28;20463;-81
2021/01/11 07:09:30;;;;;;;26.77;17.73;;;1.10;91.20;;;;;;5054498;28;20451;-81
2021/01/11 07:15:15;;;;;;;29.52;18.38;;;1.10;91.30;;;;;;4987251;28;20452;-81
2021/01/11 07:17:43;;;;;;;33.63;19.57;;;1.10;90.30;;;;;;5023642;28;20185;-81
2021/01/11 07:20:12;;;;;;;32.77;21.17;;;1.10;90.80;;;;;;5050167;28;20922;-83
2021/01/11 07:22:40;;;;;;;33.63;19.87;;;1.10;91.40;;;;;;5034038;28;20456;-82
2021/01/11 07:25:18;;;;;;;35.97;21.07;;;1.20;91.30;;;;;;5034130;28;20978;-82
2021/01/11 07:27:47;;;;;;;41.20;23.40;;;1.20;92.20;;;;;;5030084;28;20493;-82
2021/01/11 07:30:21;;;;;;;41.23;22.33;;;1.10;92.60;;;;;;5043550;28;20287;-81
2021/01/11 07:32:49;;;;;;;35.77;22.07;;;1.20;93.00;;;;;;5033127;28;20495;-81
2021/01/11 07:35:19;;;;;;;40.67;21.80;;;1.20;93.60;;;;;;5034971;28;20477;-81
2021/01/11 07:37:46;;;;;;;45.80;25.23;;;1.20;93.70;;;;;;5033321;28;20456;-82
2021/01/11 07:40:13;;;;;;;47.00;25.67;;;1.30;93.90;;;;;;5045649;28;20487;-83
2021/01/11 07:42:39;;;;;;;37.60;22.50;;;1.30;94.50;;;;;;5053920;28;20809;-82
2021/01/11 07:45:10;;;;;;;43.38;24.65;;;1.30;94.10;;;;;;5043022;28;20798;-82
2021/01/11 07:47:41;;;;;;;29.20;21.30;;;1.30;94.70;;;;;;5032773;28;20224;-82
2021/01/11 07:50:08;;;;;;;28.13;15.87;;;1.40;94.70;;;;;;5043442;28;20526;-82
2021/01/11 07:52:35;;;;;;;31.30;17.30;;;1.40;94.00;;;;;;5053739;28;20451;-82
2021/01/11 07:55:09;;;;;;;34.60;20.03;;;1.50;93.60;;;;;;5051859;28;20455;-82
2021/01/11 07:57:40;;;;;;;34.63;22.35;;;1.40;92.20;;;;;;5053312;28;20865;-82
2021/01/11 08:01:10;;;;;;;;;;;;;;;;;;;;;
2021/01/11 08:04:17;;;;;;;;;;;;;;;;;;;;;
2021/01/11 08:10:28;;;;;;;28.80;15.50;;;1.40;88.30;;;;;;4896256;29;20473;-82
2021/01/11 08:16:31;;;;;;;;;;;;;;;;;;;;;
2021/01/11 08:22:27;;;;;;;34.27;16.17;;;1.40;87.40;;;;;;4857250;29;20460;-82
2021/01/11 08:25:20;;;;;;;33.47;18.30;;;1.40;89.50;;;;;;4917839;29;20460;-82
2021/01/11 08:28:30;;;;;;;;;;;;;;;;;;;;;
2021/01/11 08:31:36;;;;;;;;;;;;;;;;;;;;;
2021/01/11 08:34:22;;;;;;;17.57;9.83;;;1.30;88.50;;;;;;4904816;28;20493;-82
2021/01/11 08:43:56;;;;;;;19.80;11.30;;;1.30;85.80;;;;;;4971758;28;20203;-82
2021/01/11 09:13:12;;;;;;;;;;;;;;;;;;;;;
2021/01/11 09:16:28;;;;;;;;;;;;;;;;;;;;;
2021/01/11 09:19:43;;;;;;;;;;;;;;;;;;;;;
2021/01/11 09:33:15;;;;;;;12.50;8.77;;;1.40;87.80;;;;;;4865173;29;20294;-83
2021/01/11 09:42:59;;;;;;;23.97;14.00;;;1.50;90.60;;;;;;4816946;29;20462;-83
2021/01/11 09:48:57;;;;;;;24.25;12.98;;;1.70;90.50;;;;;;4914090;28;20459;-82
2021/01/11 09:51:40;;;;;;;;;;;;;;;;;;;;;
2021/01/11 09:54:13;;;;;;;22.43;11.90;;;1.70;90.60;;;;;;4958389;28;20448;-81
2021/01/11 10:00:04;;;;;;;22.60;13.60;;;1.70;90.40;;;;;;4947403;28;20561;-83
2021/01/11 10:06:10;;;;;;;;;;;;;;;;;;;;;
2021/01/11 10:08:44;;;;;;;23.47;12.50;;;1.90;90.50;;;;;;4970983;28;20544;-82
2021/01/11 10:14:19;;;;;;;;;;;;;;;;;;;;;
2021/01/11 10:17:29;;;;;;;;;;;;;;;;;;;;;
2021/01/11 10:19:55;;;;;;;27.63;15.30;;;2.10;91.20;;;;;;4858102;29;20462;-79
2021/01/11 10:22:41;;;;;;;23.53;13.30;;;2.00;90.70;;;;;;4884807;29;20550;-83
2021/01/11 10:25:18;;;;;;;20.83;13.83;;;2.10;90.70;;;;;;4897991;28;20521;-82
2021/01/11 10:28:20;;;;;;;;;;;;;;;;;;;;;
2021/01/11 10:31:22;;;;;;;;;;;;;;;;;;;;;
2021/01/11 10:34:10;;;;;;;23.67;12.63;;;2.20;90.20;;;;;;4866504;29;20474;-83
2021/01/11 10:37:31;;;;;;;22.30;13.63;;;2.10;90.80;;;;;;4959141;28;20974;-83
2021/01/11 10:40:51;;;;;;;26.00;12.80;;;2.20;91.00;;;;;;4973063;28;20459;-83
2021/01/11 10:43:37;;;;;;;21.40;13.10;;;2.20;90.40;;;;;;4974305;28;20985;-83
2021/01/11 10:46:31;;;;;;;21.27;11.93;;;2.20;90.30;;;;;;4972904;28;20821;-82
2021/01/11 10:49:11;;;;;;;26.90;14.60;;;2.30;90.70;;;;;;4977048;28;20490;-85
2021/01/11 10:51:39;;;;;;;24.63;14.53;;;2.30;90.90;;;;;;4973951;28;20486;-85
2021/01/11 10:58:34;;;;;;;16.83;11.40;;;2.30;90.60;;;;;;4950384;28;20487;-83
2021/01/11 11:04:33;;;;;;;19.97;11.63;;;2.40;91.20;;;;;;4800339;29;20496;-82
2021/01/11 11:07:52;;;;;;;25.30;14.40;;;2.40;91.40;;;;;;4947794;28;20491;-83
2021/01/11 11:10:34;;;;;;;21.50;13.67;;;2.40;90.70;;;;;;4973145;28;20494;-82
2021/01/11 11:13:13;;;;;;;;;;;;;;;;;;;;;
2021/01/11 13:15:29;;;;;;;;;;;;;;;;;;;;;
2021/01/11 13:31:16;;;;;;;;;;;;;;;;;;;;;
2021/01/11 14:26:17;;;;;;;;;;;;;;;;;;;;;
2021/01/11 14:58:04;;;;;;;17.77;11.53;;;4.40;92.90;;;;;;5866873;24;20475;-85
2021/01/11 15:04:18;;;;;;;17.97;13.17;;;4.30;92.60;;;;;;5925930;23;20427;-84
2021/01/11 17:48:40;;;;;;;11.67;7.33;;;4.90;79.40;;;;;;5723501;24;20467;-85
2021/01/11 19:24:47;;;;;;;14.63;9.87;;;5.10;78.40;;;;;;5661892;25;20438;-86
2021/01/11 20:11:35;;;;;;;22.30;14.20;;;5.30;79.70;;;;;;5844411;24;20426;-84
2021/01/11 20:18:22;;;;;;;;;;;;;;;;;;;;;
2021/01/11 21:07:32;;;;;;;30.70;20.40;;;5.40;79.20;;;;;;5810812;24;20528;-85
2021/01/11 21:10:26;;;;;;;24.33;16.90;;;5.30;79.60;;;;;;5881991;24;20504;-84
2021/01/11 21:13:25;;;;;;;;;;;;;;;;;;;;;
2021/01/11 21:20:08;;;;;;;24.90;16.80;;;5.30;80.10;;;;;;5733698;24;20552;-84
2021/01/11 21:26:22;;;;;;;;;;;;;;;;;;;;;
2021/01/11 21:32:51;;;;;;;27.27;18.00;;;5.20;81.50;;;;;;5866791;24;20476;-84
2021/01/11 21:42:39;;;;;;;;;;;;;;;;;;;;;
2021/01/11 22:14:22;;;;;;;;;;;;;;;;;;;;;
2021/01/11 22:17:20;;;;;;;39.87;28.10;;;5.20;99.40;;;;;;5871588;24;20861;-84
2021/01/11 22:19:57;;;;;;;36.63;27.13;;;5.10;99.90;;;;;;5826066;24;20517;-84
2021/01/11 22:22:28;;;;;;;39.40;29.33;;;5.00;99.90;;;;;;5938265;24;20587;-83
2021/01/11 22:24:58;;;;;;;30.77;27.47;;;5.10;99.90;;;;;;6005558;23;20500;-83
2021/01/11 22:27:25;;;;;;;36.10;29.07;;;5.00;99.90;;;;;;6141286;23;20553;-81
2021/01/11 22:29:53;;;;;;;41.00;31.00;;;5.10;99.90;;;;;;6148432;23;20438;-82
2021/01/11 22:32:19;;;;;;;38.70;34.60;;;5.00;99.90;;;;;;6164226;23;20460;-82
2021/01/11 22:34:49;;;;;;;40.13;35.90;;;4.90;99.90;;;;;;6156123;23;20494;-84
2021/01/11 22:54:50;;;;;;;;;;;;;;;;;;;;;
2021/01/11 22:57:57;;;;;;;49.07;44.17;;;5.00;99.90;;;;;;5950852;24;20488;-84
2021/01/11 23:00:48;;;;;;;37.30;33.70;;;5.10;99.90;;;;;;5945512;24;20835;-83
2021/01/11 23:03:47;;;;;;;;;;;;;;;;;;;;;
2021/01/11 23:06:16;;;;;;;39.87;35.67;;;5.10;99.90;;;;;;5925160;23;20418;-83
2021/01/11 23:09:03;;;;;;;44.10;39.10;;;5.10;99.90;;;;;;6044784;23;20425;-83
2021/01/11 23:11:31;;;;;;;38.57;34.60;;;5.10;99.90;;;;;;6122247;23;20496;-82
2021/01/11 23:14:16;;;;;;;40.50;36.10;;;5.20;99.90;;;;;;6165581;23;20413;-83
2021/01/11 23:16:55;;;;;;;35.33;31.47;;;5.20;99.90;;;;;;6154767;23;20433;-83
2021/01/11 23:19:38;;;;;;;33.07;27.40;;;5.20;99.90;;;;;;6165400;23;20426;-83
2021/01/11 23:25:18;;;;;;;32.70;29.47;;;5.30;99.90;;;;;;6165649;23;20406;-83
2021/01/11 23:27:48;;;;;;;29.13;25.47;;;5.20;99.90;;;;;;6165291;23;20442;-82
2021/01/11 23:30:35;;;;;;;27.40;23.43;;;5.30;99.90;;;;;;6155895;23;20481;-83
2021/01/11 23:33:05;;;;;;;31.97;26.87;;;5.20;99.90;;;;;;6164738;23;20413;-82
2021/01/11 23:35:32;;;;;;;25.70;21.07;;;5.20;99.90;;;;;;6155983;23;20878;-83
2021/01/11 23:38:04;;;;;;;31.03;24.80;;;5.30;99.90;;;;;;6155991;23;20421;-82
2021/01/11 23:40:35;;;;;;;26.40;22.80;;;5.40;99.90;;;;;;6155894;23;20399;-82
2021/01/11 23:43:18;;;;;;;27.07;20.53;;;5.40;99.90;;;;;;6155940;23;20421;-83
2021/01/11 23:45:45;;;;;;;28.17;24.13;;;5.30;99.90;;;;;;6165581;23;20410;-82
2021/01/11 23:48:17;;;;;;;26.37;23.53;;;5.40;99.90;;;;;;6154490;23;20398;-82
2021/01/11 23:50:47;;;;;;;27.27;24.37;;;5.40;99.90;;;;;;6155630;23;20485;-82
2021/01/11 23:53:28;;;;;;;27.60;24.43;;;5.30;99.90;;;;;;6156578;23;20402;-82
2021/01/11 23:56:00;;;;;;;27.70;22.47;;;5.30;99.90;;;;;;6155906;23;20407;-82
2021/01/11 23:58:36;;;;;;;30.90;25.07;;;5.50;99.90;;;;;;6165391;23;20886;-83
